createdAt,value
2018-12-22T00:01:06.326Z,80.30
2018-12-22T00:03:34.877Z,80.50
2018-12-22T00:06:03.340Z,80.40
2018-12-22T00:08:31.683Z,80.50
2018-12-22T00:13:27.469Z,80.50
2018-12-22T00:15:55.768Z,81.40
2018-12-22T00:18:24.068Z,80.50
2018-12-22T00:20:52.365Z,80.50
2018-12-22T00:23:20.663Z,80.70
2018-12-22T00:25:49.406Z,80.50
2018-12-22T00:28:22.131Z,80.50
2018-12-22T00:30:48.165Z,80.30
2018-12-22T00:33:16.517Z,79.90
2018-12-22T00:35:44.814Z,80.40
2018-12-22T00:38:13.569Z,80.90
2018-12-22T00:40:42.005Z,80.70
2018-12-22T00:43:10.451Z,80.80
2018-12-22T00:45:38.897Z,80.80
2018-12-22T00:48:07.297Z,81.10
2018-12-22T00:50:35.693Z,81.20
2018-12-22T00:53:04.009Z,81.50
2018-12-22T00:55:32.374Z,82.00
2018-12-22T00:58:00.985Z,82.10
2018-12-22T01:00:29.350Z,81.90
2018-12-22T01:02:57.825Z,82.50
2018-12-22T01:05:26.134Z,82.50
2018-12-22T01:07:55.033Z,82.70
2018-12-22T01:10:23.673Z,82.70
2018-12-22T01:12:52.071Z,83.20
2018-12-22T01:15:20.601Z,82.70
2018-12-22T01:17:48.974Z,82.70
2018-12-22T01:20:17.375Z,82.70
2018-12-22T01:22:45.773Z,82.60
2018-12-22T01:25:14.174Z,82.60
2018-12-22T01:27:42.621Z,82.60
2018-12-22T01:32:38.089Z,82.60
2018-12-22T01:35:06.996Z,82.70
2018-12-22T01:37:35.487Z,82.50
2018-12-22T01:40:04.585Z,82.40
2018-12-22T01:42:32.999Z,82.20
2018-12-22T01:45:01.321Z,82.30
2018-12-22T01:47:30.380Z,82.30
2018-12-22T01:49:58.650Z,82.30
2018-12-22T01:52:26.945Z,82.60
2018-12-22T01:54:55.434Z,83.00
2018-12-22T01:57:23.741Z,83.00
2018-12-22T01:59:52.234Z,83.30
2018-12-22T02:02:21.092Z,83.50
2018-12-22T02:04:49.374Z,83.40
2018-12-22T02:07:17.889Z,83.80
2018-12-22T02:09:46.595Z,83.80
2018-12-22T02:12:15.045Z,83.80
2018-12-22T02:14:43.401Z,84.10
2018-12-22T02:17:11.733Z,84.80
2018-12-22T02:19:40.246Z,84.60
2018-12-22T02:22:08.600Z,84.70
2018-12-22T02:24:37.002Z,84.70
2018-12-22T02:27:05.410Z,84.60
2018-12-22T02:29:33.667Z,84.40
2018-12-22T02:32:02.192Z,84.60
2018-12-22T02:34:30.671Z,84.50
2018-12-22T02:36:59.236Z,84.20
2018-12-22T02:39:27.608Z,85.40
2018-12-22T02:41:55.878Z,84.80
2018-12-22T02:44:24.236Z,85.60
2018-12-22T02:46:55.298Z,84.70
2018-12-22T02:49:23.741Z,84.80
2018-12-22T02:51:52.035Z,85.00
2018-12-22T02:54:20.498Z,85.20
2018-12-22T02:56:48.826Z,85.00
2018-12-22T02:59:17.095Z,85.20
2018-12-22T03:01:45.377Z,84.70
2018-12-22T03:04:13.691Z,84.90
2018-12-22T03:06:42.504Z,84.90
2018-12-22T03:09:10.959Z,84.60
2018-12-22T03:11:39.459Z,84.40
2018-12-22T03:14:07.757Z,83.90
2018-12-22T03:16:36.114Z,83.40
2018-12-22T03:19:04.486Z,84.30
2018-12-22T03:21:32.775Z,82.70
2018-12-22T03:24:01.121Z,82.80
2018-12-22T03:26:29.415Z,82.30
2018-12-22T03:28:57.887Z,82.30
2018-12-22T03:31:26.294Z,82.40
2018-12-22T03:33:54.593Z,81.90
2018-12-22T03:36:22.883Z,81.90
2018-12-22T03:38:51.420Z,81.00
2018-12-22T03:41:19.797Z,81.10
2018-12-22T03:43:48.099Z,81.80
2018-12-22T03:46:16.447Z,80.70
2018-12-22T03:48:44.751Z,80.60
2018-12-22T03:51:13.989Z,80.50
2018-12-22T03:53:42.306Z,80.80
2018-12-22T03:56:10.581Z,81.00
2018-12-22T03:58:38.957Z,80.80
2018-12-22T04:01:07.375Z,80.50
2018-12-22T04:03:35.893Z,80.60
2018-12-22T04:06:04.296Z,81.20
2018-12-22T04:08:32.631Z,80.30
2018-12-22T04:11:01.163Z,80.30
2018-12-22T04:13:29.426Z,80.30
2018-12-22T04:15:57.733Z,80.30
2018-12-22T04:18:26.030Z,80.10
2018-12-22T04:20:54.398Z,80.40
2018-12-22T04:23:22.806Z,80.80
2018-12-22T04:25:51.123Z,80.50
2018-12-22T04:28:19.450Z,80.60
2018-12-22T04:30:48.074Z,80.80
2018-12-22T04:33:16.418Z,80.70
2018-12-22T04:35:44.925Z,80.80
2018-12-22T04:38:13.267Z,81.10
2018-12-22T04:40:41.575Z,81.10
2018-12-22T04:43:09.894Z,80.70
2018-12-22T04:45:38.275Z,81.00
2018-12-22T04:48:06.562Z,81.30
2018-12-22T04:50:35.978Z,80.80
2018-12-22T04:53:04.396Z,81.10
2018-12-22T04:55:32.790Z,80.70
2018-12-22T04:58:00.739Z,81.00
2018-12-22T05:00:29.019Z,81.00
2018-12-22T05:02:58.141Z,81.00
2018-12-22T05:07:53.499Z,81.30
2018-12-22T05:10:21.834Z,81.20
2018-12-22T05:12:50.221Z,80.80
2018-12-22T05:15:18.693Z,80.60
2018-12-22T05:17:47.066Z,80.00
2018-12-22T05:20:15.607Z,80.10
2018-12-22T05:22:43.985Z,80.30
2018-12-22T05:25:12.460Z,80.50
2018-12-22T05:27:40.786Z,80.40
2018-12-22T05:30:09.549Z,80.80
2018-12-22T05:32:37.885Z,80.30
2018-12-22T05:35:06.285Z,80.40
2018-12-22T05:37:35.126Z,80.40
2018-12-22T05:40:03.477Z,80.30
2018-12-22T05:42:32.015Z,80.60
2018-12-22T05:45:00.330Z,80.60
2018-12-22T05:47:28.646Z,80.80
2018-12-22T05:49:57.275Z,80.70
2018-12-22T05:52:25.573Z,80.60
2018-12-22T05:54:53.965Z,80.60
2018-12-22T05:57:21.319Z,80.80
2018-12-22T05:59:49.616Z,80.80
2018-12-22T06:04:43.776Z,80.90
2018-12-22T06:07:12.196Z,81.00
2018-12-22T06:09:40.911Z,80.80
2018-12-22T06:12:09.296Z,81.00
2018-12-22T06:14:37.767Z,81.10
2018-12-22T06:17:06.087Z,81.20
2018-12-22T06:19:34.405Z,81.00
2018-12-22T06:22:02.746Z,80.90
2018-12-22T06:24:31.110Z,81.40
2018-12-22T06:26:59.645Z,81.10
2018-12-22T06:29:27.929Z,80.70
2018-12-22T06:31:56.451Z,80.90
2018-12-22T06:34:24.896Z,80.90
2018-12-22T06:36:53.224Z,80.70
2018-12-22T06:39:21.956Z,80.60
2018-12-22T06:41:50.260Z,80.60
2018-12-22T06:44:18.552Z,80.50
2018-12-22T06:46:47.095Z,80.50
2018-12-22T06:49:14.466Z,80.50
2018-12-22T06:51:42.761Z,80.60
2018-12-22T06:54:11.097Z,80.50
2018-12-22T06:56:39.372Z,80.50
2018-12-22T06:59:08.147Z,80.60
2018-12-22T07:01:36.438Z,80.80
2018-12-22T07:04:04.742Z,80.80
2018-12-22T07:06:33.195Z,80.80
2018-12-22T07:09:01.880Z,80.60
2018-12-22T07:11:30.281Z,80.60
2018-12-22T07:13:58.836Z,80.90
2018-12-22T07:16:26.647Z,81.00
2018-12-22T07:18:55.821Z,81.80
2018-12-22T07:21:24.499Z,80.90
2018-12-22T07:23:52.945Z,81.00
2018-12-22T07:26:21.353Z,82.00
2018-12-22T07:28:49.798Z,81.20
2018-12-22T07:31:18.137Z,81.20
2018-12-22T07:33:46.550Z,81.00
2018-12-22T07:36:15.278Z,80.90
2018-12-22T07:38:46.040Z,80.60
2018-12-22T07:41:14.642Z,80.70
2018-12-22T07:43:43.094Z,80.60
2018-12-22T07:46:12.067Z,80.60
2018-12-22T07:48:42.724Z,80.50
2018-12-22T07:51:11.013Z,80.60
2018-12-22T07:53:39.349Z,80.40
2018-12-22T07:56:11.756Z,80.30
2018-12-22T07:58:40.130Z,80.40
2018-12-22T08:01:09.921Z,80.40
2018-12-22T08:06:06.196Z,80.30
2018-12-22T08:08:35.250Z,80.20
2018-12-22T08:11:03.603Z,80.20
2018-12-22T08:13:32.049Z,80.20
2018-12-22T08:16:00.631Z,80.40
2018-12-22T08:18:28.972Z,80.10
2018-12-22T08:20:57.461Z,80.00
2018-12-22T08:23:25.762Z,80.20
2018-12-22T08:25:54.093Z,80.20
2018-12-22T08:28:22.047Z,80.20
2018-12-22T08:30:52.081Z,79.80
2018-12-22T08:33:20.628Z,80.10
2018-12-22T08:35:49.055Z,79.70
2018-12-22T08:38:17.712Z,79.80
2018-12-22T08:40:46.173Z,80.20
2018-12-22T08:43:15.231Z,79.80
2018-12-22T08:45:43.609Z,80.00
2018-12-22T08:48:11.909Z,79.40
2018-12-22T08:50:40.389Z,79.80
2018-12-22T08:53:08.558Z,79.70
2018-12-22T08:55:36.954Z,79.90
2018-12-22T08:58:08.730Z,79.40
2018-12-22T09:00:37.158Z,79.40
2018-12-22T09:03:05.756Z,79.00
2018-12-22T09:08:11.699Z,78.50
2018-12-22T09:10:40.289Z,78.90
2018-12-22T09:13:09.277Z,78.60
2018-12-22T09:15:37.274Z,79.10
2018-12-22T09:18:06.026Z,79.00
2018-12-22T09:20:34.497Z,79.80
2018-12-22T09:23:02.875Z,78.40
2018-12-22T09:25:31.405Z,78.00
2018-12-22T09:27:59.849Z,78.80
2018-12-22T09:30:28.377Z,78.20
2018-12-22T09:32:57.407Z,78.10
2018-12-22T09:35:26.165Z,78.40
2018-12-22T09:37:54.498Z,78.50
2018-12-22T09:40:23.074Z,78.30
2018-12-22T09:42:51.546Z,78.20
2018-12-22T09:45:19.878Z,78.20
2018-12-22T09:47:48.186Z,78.20
2018-12-22T09:50:16.632Z,78.30
2018-12-22T09:52:45.066Z,78.00
2018-12-22T09:55:13.461Z,78.40
2018-12-22T09:57:41.828Z,78.10
2018-12-22T10:00:12.422Z,78.50
2018-12-22T10:02:40.958Z,78.10
2018-12-22T10:05:09.754Z,77.90
2018-12-22T10:07:38.209Z,77.70
2018-12-22T10:10:12.099Z,78.20
2018-12-22T10:12:40.538Z,77.60
2018-12-22T10:15:09.046Z,77.80
2018-12-22T10:17:37.578Z,78.10
2018-12-22T10:20:07.393Z,78.10
2018-12-22T10:22:35.702Z,77.70
2018-12-22T10:25:06.198Z,77.10
2018-12-22T10:27:35.443Z,77.40
2018-12-22T10:30:04.540Z,77.70
2018-12-22T10:32:32.829Z,77.60
2018-12-22T10:35:01.244Z,77.70
2018-12-22T10:37:29.523Z,77.70
2018-12-22T10:39:57.886Z,77.50
2018-12-22T10:42:25.279Z,77.30
2018-12-22T10:44:53.805Z,77.50
2018-12-22T10:47:22.352Z,77.60
2018-12-22T10:52:18.354Z,77.60
2018-12-22T10:54:47.121Z,76.70
2018-12-22T10:57:16.941Z,77.20
2018-12-22T10:59:45.294Z,77.30
2018-12-22T11:02:13.561Z,76.50
2018-12-22T11:04:41.890Z,76.20
2018-12-22T11:11:10.231Z,77.10
2018-12-22T11:13:57.130Z,75.70
2018-12-22T11:16:27.202Z,76.80
2018-12-22T11:18:57.959Z,76.40
2018-12-22T11:21:26.523Z,76.50
2018-12-22T11:23:54.895Z,76.30
2018-12-22T11:26:27.087Z,76.10
2018-12-22T11:29:00.789Z,75.70
2018-12-22T11:31:35.079Z,75.80
2018-12-22T11:34:07.963Z,75.60
2018-12-22T11:36:36.414Z,76.20
2018-12-22T11:39:07.015Z,76.10
2018-12-22T11:41:35.941Z,76.00
2018-12-22T11:44:04.365Z,75.90
2018-12-22T11:46:33.254Z,76.00
2018-12-22T11:49:24.301Z,76.00
2018-12-22T11:51:52.649Z,76.40
2018-12-22T11:54:20.957Z,76.20
2018-12-22T11:56:50.063Z,75.90
2018-12-22T11:59:18.337Z,75.40
2018-12-22T12:01:46.934Z,75.60
2018-12-22T12:04:23.070Z,75.60
2018-12-22T12:06:51.485Z,76.20
2018-12-22T12:09:19.931Z,75.70
2018-12-22T12:11:48.743Z,75.80
2018-12-22T12:14:17.494Z,75.80
2018-12-22T12:16:55.819Z,75.70
2018-12-22T12:19:26.970Z,75.70
2018-12-22T12:21:55.256Z,75.90
2018-12-22T12:24:24.042Z,75.80
2018-12-22T12:26:52.464Z,75.60
2018-12-22T12:29:21.694Z,75.40
2018-12-22T12:31:52.273Z,75.70
2018-12-22T12:34:20.605Z,75.40
2018-12-22T12:36:48.976Z,75.70
2018-12-22T12:39:18.262Z,75.40
2018-12-22T12:41:46.578Z,75.30
2018-12-22T12:44:14.867Z,75.60
2018-12-22T12:46:49.314Z,75.10
2018-12-22T12:49:18.583Z,75.30
2018-12-22T12:51:47.121Z,74.80
2018-12-22T12:54:15.533Z,75.50
2018-12-22T12:56:54.031Z,75.40
2018-12-22T12:59:22.870Z,75.40
2018-12-22T13:01:51.371Z,75.40
2018-12-22T13:07:19.447Z,75.50
2018-12-22T13:19:18.708Z,74.90
2018-12-22T13:24:49.898Z,75.20
2018-12-22T13:27:21.921Z,75.30
2018-12-22T13:29:52.769Z,75.60
2018-12-22T13:35:20.689Z,75.70
2018-12-22T13:37:53.345Z,75.60
2018-12-22T13:40:25.159Z,75.40
2018-12-22T13:43:15.590Z,75.60
2018-12-22T13:46:07.034Z,75.40
2018-12-22T13:51:42.811Z,75.40
2018-12-22T13:54:23.077Z,75.20
2018-12-22T14:03:02.308Z,75.70
2018-12-22T14:05:36.311Z,75.50
2018-12-22T14:08:11.961Z,76.10
2018-12-22T14:10:54.368Z,75.40
2018-12-22T14:16:54.621Z,75.60
2018-12-22T14:19:28.878Z,75.50
2018-12-22T14:22:08.603Z,75.80
2018-12-22T14:30:44.201Z,75.80
2018-12-22T14:33:16.347Z,75.40
2018-12-22T15:07:07.301Z,74.40
2018-12-22T15:09:48.381Z,74.60
2018-12-22T15:12:25.041Z,75.10
2018-12-22T15:18:01.887Z,75.30
2018-12-22T15:32:46.204Z,75.50
2018-12-22T15:38:25.361Z,76.30
2018-12-22T15:41:03.945Z,76.00
2018-12-22T15:52:29.226Z,75.50
2018-12-22T15:58:08.214Z,75.90
2018-12-22T16:00:59.011Z,75.20
2018-12-22T16:07:13.340Z,75.70
2018-12-22T16:09:52.779Z,75.50
2018-12-22T16:12:24.943Z,75.80
2018-12-22T16:15:01.525Z,75.70
2018-12-22T16:17:36.547Z,76.10
2018-12-22T16:23:08.454Z,75.60
2018-12-22T16:25:48.723Z,75.20
2018-12-22T16:28:30.259Z,75.20
2018-12-22T16:34:01.924Z,75.10
2018-12-22T16:36:36.185Z,75.20
2018-12-22T16:42:04.325Z,74.90
2018-12-22T17:06:35.879Z,74.30
2018-12-22T17:12:12.009Z,74.60
2018-12-22T17:20:51.001Z,75.20
2018-12-22T17:26:38.260Z,75.30
2018-12-22T17:29:12.292Z,75.10
2018-12-22T17:31:53.792Z,75.00
2018-12-22T17:40:34.259Z,74.90
2018-12-22T17:43:19.980Z,75.00
2018-12-22T17:48:58.242Z,74.70
2018-12-22T17:57:21.999Z,74.70
2018-12-22T18:03:03.164Z,75.20
2018-12-22T18:08:37.655Z,74.70
2018-12-22T18:11:09.890Z,74.90
2018-12-22T18:28:53.388Z,75.00
2018-12-22T18:49:15.045Z,74.10
2018-12-22T18:54:50.820Z,74.20
2018-12-22T18:57:27.447Z,73.50
2018-12-22T19:02:58.167Z,73.40
2018-12-22T19:05:44.116Z,73.40
2018-12-22T19:08:18.365Z,73.70
2018-12-22T19:11:03.769Z,74.10
2018-12-22T19:13:44.820Z,73.70
2018-12-22T19:19:14.677Z,74.10
2018-12-22T19:21:48.787Z,74.00
2018-12-22T19:24:39.554Z,73.50
2018-12-22T19:39:12.057Z,73.20
2018-12-22T19:48:17.593Z,73.60
2018-12-22T19:57:14.664Z,73.10
2018-12-22T20:05:45.521Z,73.60
2018-12-22T20:08:27.748Z,73.20
2018-12-22T20:11:22.454Z,73.30
2018-12-22T20:13:56.789Z,73.30
2018-12-22T20:16:33.265Z,73.60
2018-12-22T20:22:17.285Z,73.10
2018-12-22T20:24:52.330Z,73.70
2018-12-22T20:27:23.841Z,73.90
2018-12-22T20:30:18.461Z,73.30
2018-12-22T20:32:56.940Z,73.50
2018-12-22T20:35:37.118Z,73.60
2018-12-22T20:41:21.105Z,73.60
2018-12-22T20:43:56.704Z,73.50
2018-12-22T20:46:28.769Z,73.50
2018-12-22T20:49:30.977Z,73.70
2018-12-22T21:03:43.939Z,73.90
2018-12-22T21:06:31.351Z,73.80
2018-12-22T21:15:02.186Z,74.10
2018-12-22T21:17:31.967Z,74.20
2018-12-22T21:20:12.425Z,74.60
2018-12-22T21:22:52.304Z,74.10
2018-12-22T21:25:27.901Z,74.30
2018-12-22T21:33:56.668Z,73.90
2018-12-22T21:36:29.069Z,74.10
2018-12-22T21:39:04.511Z,74.10
2018-12-22T21:41:38.944Z,74.00
2018-12-22T21:44:15.301Z,74.20
2018-12-22T21:49:43.666Z,74.60
2018-12-22T21:52:18.164Z,74.30
2018-12-22T21:54:59.085Z,73.80
2018-12-22T21:57:33.823Z,73.90
2018-12-22T22:00:10.162Z,74.20
2018-12-22T22:02:48.760Z,73.80
2018-12-22T22:05:23.392Z,73.90
2018-12-22T22:07:54.966Z,73.80
